sensor_id;sensor_type;location;lat;lon;timestamp;P1;durP1;ratioP1;P2;durP2;ratioP2
60306;SDS011;46155;52.364;6.580;2023-04-25T03:02:51;15.83;;;14.37;;
60306;SDS011;46155;52.364;6.580;2023-04-25T03:05:16;19.80;;;17.80;;
60306;SDS011;46155;52.364;6.580;2023-04-25T03:07:42;23.00;;;18.83;;
60306;SDS011;46155;52.364;6.580;2023-04-25T03:10:08;20.60;;;18.53;;
60306;SDS011;46155;52.364;6.580;2023-04-25T03:12:34;21.60;;;17.23;;
60306;SDS011;46155;52.364;6.580;2023-04-25T03:14:59;18.37;;;16.70;;
60306;SDS011;46155;52.364;6.580;2023-04-25T03:17:25;22.60;;;18.30;;
60306;SDS011;46155;52.364;6.580;2023-04-25T03:19:50;19.20;;;17.50;;
60306;SDS011;46155;52.364;6.580;2023-04-25T03:22:15;19.70;;;16.57;;
60306;SDS011;46155;52.364;6.580;2023-04-25T03:24:41;19.07;;;17.53;;
60306;SDS011;46155;52.364;6.580;2023-04-25T03:27:06;19.33;;;16.00;;
60306;SDS011;46155;52.364;6.580;2023-04-25T03:29:31;18.03;;;16.37;;
60306;SDS011;46155;52.364;6.580;2023-04-25T03:31:57;22.37;;;17.40;;
60306;SDS011;46155;52.364;6.580;2023-04-25T03:34:22;19.27;;;17.57;;
60306;SDS011;46155;52.364;6.580;2023-04-25T03:36:48;19.67;;;16.97;;
60306;SDS011;46155;52.364;6.580;2023-04-25T03:39:14;20.63;;;17.90;;
60306;SDS011;46155;52.364;6.580;2023-04-25T03:41:39;20.63;;;19.03;;
60306;SDS011;46155;52.364;6.580;2023-04-25T03:44:05;19.20;;;17.53;;
60306;SDS011;46155;52.364;6.580;2023-04-25T03:46:30;18.67;;;16.80;;
60306;SDS011;46155;52.364;6.580;2023-04-25T03:48:55;18.37;;;16.90;;
60306;SDS011;46155;52.364;6.580;2023-04-25T03:51:20;19.23;;;17.53;;
60306;SDS011;46155;52.364;6.580;2023-04-25T03:53:46;19.40;;;17.63;;
60306;SDS011;46155;52.364;6.580;2023-04-25T03:56:11;21.33;;;19.27;;
60306;SDS011;46155;52.364;6.580;2023-04-25T03:58:36;18.50;;;16.77;;
60306;SDS011;46155;52.364;6.580;2023-04-25T04:01:01;18.40;;;16.60;;
60306;SDS011;46155;52.364;6.580;2023-04-25T04:03:32;19.57;;;17.73;;
60306;SDS011;46155;52.364;6.580;2023-04-25T04:05:59;17.17;;;15.70;;
60306;SDS011;46155;52.364;6.580;2023-04-25T04:08:25;18.47;;;16.73;;
60306;SDS011;46155;52.364;6.580;2023-04-25T04:10:50;18.23;;;16.60;;
60306;SDS011;46155;52.364;6.580;2023-04-25T04:13:15;18.07;;;15.97;;
60306;SDS011;46155;52.364;6.580;2023-04-25T04:15:40;19.33;;;17.40;;
60306;SDS011;46155;52.364;6.580;2023-04-25T04:18:06;21.97;;;16.67;;
60306;SDS011;46155;52.364;6.580;2023-04-25T04:20:31;18.97;;;17.03;;
60306;SDS011;46155;52.364;6.580;2023-04-25T04:22:57;18.20;;;16.53;;
60306;SDS011;46155;52.364;6.580;2023-04-25T04:25:22;26.70;;;17.70;;
60306;SDS011;46155;52.364;6.580;2023-04-25T04:27:47;19.53;;;14.50;;
60306;SDS011;46155;52.364;6.580;2023-04-25T04:30:12;22.50;;;15.43;;
60306;SDS011;46155;52.364;6.580;2023-04-25T04:32:38;16.33;;;14.70;;
60306;SDS011;46155;52.364;6.580;2023-04-25T04:35:03;15.97;;;14.17;;
60306;SDS011;46155;52.364;6.580;2023-04-25T04:37:29;21.40;;;11.97;;
60306;SDS011;46155;52.364;6.580;2023-04-25T04:39:55;18.27;;;11.07;;
60306;SDS011;46155;52.364;6.580;2023-04-25T04:42:21;13.47;;;11.20;;
60306;SDS011;46155;52.364;6.580;2023-04-25T04:44:46;21.30;;;12.87;;
60306;SDS011;46155;52.364;6.580;2023-04-25T04:47:11;10.97;;;10.13;;
60306;SDS011;46155;52.364;6.580;2023-04-25T04:49:37;11.50;;;10.37;;
60306;SDS011;46155;52.364;6.580;2023-04-25T04:52:02;14.93;;;9.87;;
60306;SDS011;46155;52.364;6.580;2023-04-25T04:54:28;20.73;;;10.20;;
60306;SDS011;46155;52.364;6.580;2023-04-25T04:56:53;11.87;;;10.50;;
60306;SDS011;46155;52.364;6.580;2023-04-25T04:59:19;13.03;;;11.73;;
60306;SDS011;46155;52.364;6.580;2023-04-25T05:01:44;11.33;;;10.33;;
60306;SDS011;46155;52.364;6.580;2023-04-25T05:04:10;20.90;;;12.03;;
60306;SDS011;46155;52.364;6.580;2023-04-25T05:06:36;11.83;;;10.53;;
60306;SDS011;46155;52.364;6.580;2023-04-25T05:09:01;13.13;;;10.40;;
60306;SDS011;46155;52.364;6.580;2023-04-25T05:11:26;16.67;;;10.83;;
60306;SDS011;46155;52.364;6.580;2023-04-25T05:13:52;12.97;;;11.07;;
60306;SDS011;46155;52.364;6.580;2023-04-25T05:16:18;21.40;;;9.67;;
60306;SDS011;46155;52.364;6.580;2023-04-25T05:18:44;12.63;;;10.63;;
60306;SDS011;46155;52.364;6.580;2023-04-25T05:21:09;15.70;;;11.10;;
60306;SDS011;46155;52.364;6.580;2023-04-25T05:23:35;13.17;;;11.13;;
60306;SDS011;46155;52.364;6.580;2023-04-25T05:26:00;13.33;;;10.90;;
60306;SDS011;46155;52.364;6.580;2023-04-25T05:28:26;15.13;;;9.83;;
60306;SDS011;46155;52.364;6.580;2023-04-25T05:30:51;11.97;;;10.73;;
60306;SDS011;46155;52.364;6.580;2023-04-25T05:33:17;13.47;;;12.13;;
60306;SDS011;46155;52.364;6.580;2023-04-25T05:35:43;12.00;;;10.43;;
60306;SDS011;46155;52.364;6.580;2023-04-25T05:38:08;13.77;;;10.80;;
60306;SDS011;46155;52.364;6.580;2023-04-25T05:40:33;14.83;;;10.77;;
60306;SDS011;46155;52.364;6.580;2023-04-25T05:42:59;19.43;;;10.43;;
60306;SDS011;46155;52.364;6.580;2023-04-25T05:45:24;12.57;;;10.87;;
60306;SDS011;46155;52.364;6.580;2023-04-25T05:47:50;17.63;;;10.93;;
60306;SDS011;46155;52.364;6.580;2023-04-25T05:50:15;12.73;;;11.13;;
60306;SDS011;46155;52.364;6.580;2023-04-25T05:52:40;12.40;;;10.97;;
60306;SDS011;46155;52.364;6.580;2023-04-25T05:55:06;12.73;;;10.77;;
60306;SDS011;46155;52.364;6.580;2023-04-25T05:57:31;17.77;;;9.67;;
60306;SDS011;46155;52.364;6.580;2023-04-25T05:59:57;14.17;;;11.13;;
60306;SDS011;46155;52.364;6.580;2023-04-25T06:02:22;15.07;;;9.83;;
60306;SDS011;46155;52.364;6.580;2023-04-25T06:04:48;18.00;;;11.13;;
60306;SDS011;46155;52.364;6.580;2023-04-25T06:07:15;24.30;;;11.67;;
60306;SDS011;46155;52.364;6.580;2023-04-25T06:09:40;12.43;;;9.87;;
60306;SDS011;46155;52.364;6.580;2023-04-25T06:12:06;15.60;;;10.00;;
60306;SDS011;46155;52.364;6.580;2023-04-25T06:14:31;13.27;;;10.17;;
60306;SDS011;46155;52.364;6.580;2023-04-25T06:16:57;17.73;;;10.20;;
60306;SDS011;46155;52.364;6.580;2023-04-25T06:19:22;18.90;;;9.73;;
60306;SDS011;46155;52.364;6.580;2023-04-25T06:21:48;15.03;;;8.70;;
60306;SDS011;46155;52.364;6.580;2023-04-25T06:24:13;16.80;;;9.20;;
60306;SDS011;46155;52.364;6.580;2023-04-25T06:26:38;10.23;;;7.70;;
60306;SDS011;46155;52.364;6.580;2023-04-25T06:29:04;10.57;;;8.63;;
60306;SDS011;46155;52.364;6.580;2023-04-25T06:31:29;9.43;;;7.83;;
60306;SDS011;46155;52.364;6.580;2023-04-25T06:33:57;10.93;;;8.40;;
60306;SDS011;46155;52.364;6.580;2023-04-25T06:36:22;13.27;;;8.10;;
60306;SDS011;46155;52.364;6.580;2023-04-25T06:38:50;14.43;;;8.13;;
60306;SDS011;46155;52.364;6.580;2023-04-25T06:41:16;9.90;;;7.53;;
60306;SDS011;46155;52.364;6.580;2023-04-25T06:43:41;14.90;;;5.87;;
60306;SDS011;46155;52.364;6.580;2023-04-25T06:46:06;12.40;;;6.23;;
60306;SDS011;46155;52.364;6.580;2023-04-25T06:48:31;14.87;;;7.00;;
60306;SDS011;46155;52.364;6.580;2023-04-25T06:50:57;13.43;;;6.30;;
60306;SDS011;46155;52.364;6.580;2023-04-25T06:53:22;11.50;;;6.53;;
60306;SDS011;46155;52.364;6.580;2023-04-25T06:55:47;9.87;;;6.80;;
60306;SDS011;46155;52.364;6.580;2023-04-25T06:58:13;10.83;;;7.63;;
60306;SDS011;46155;52.364;6.580;2023-04-25T07:00:38;13.43;;;8.00;;
60306;SDS011;46155;52.364;6.580;2023-04-25T07:03:03;11.50;;;6.23;;
60306;SDS011;46155;52.364;6.580;2023-04-25T07:05:28;6.83;;;6.23;;
60306;SDS011;46155;52.364;6.580;2023-04-25T07:07:54;11.97;;;6.17;;
60306;SDS011;46155;52.364;6.580;2023-04-25T07:10:19;11.07;;;6.50;;
60306;SDS011;46155;52.364;6.580;2023-04-25T07:12:46;7.93;;;6.27;;
60306;SDS011;46155;52.364;6.580;2023-04-25T07:15:11;13.80;;;6.43;;
60306;SDS011;46155;52.364;6.580;2023-04-25T07:17:37;17.87;;;5.97;;
60306;SDS011;46155;52.364;6.580;2023-04-25T07:20:02;13.93;;;6.63;;
60306;SDS011;46155;52.364;6.580;2023-04-25T07:22:28;8.60;;;5.67;;
60306;SDS011;46155;52.364;6.580;2023-04-25T07:24:54;12.87;;;6.23;;
60306;SDS011;46155;52.364;6.580;2023-04-25T07:27:20;7.33;;;5.73;;
60306;SDS011;46155;52.364;6.580;2023-04-25T07:29:45;6.40;;;5.80;;
60306;SDS011;46155;52.364;6.580;2023-04-25T07:32:11;10.43;;;6.23;;
60306;SDS011;46155;52.364;6.580;2023-04-25T07:34:38;7.90;;;5.80;;
60306;SDS011;46155;52.364;6.580;2023-04-25T07:37:03;10.27;;;4.90;;
60306;SDS011;46155;52.364;6.580;2023-04-25T07:39:29;11.67;;;6.47;;
60306;SDS011;46155;52.364;6.580;2023-04-25T07:41:55;6.77;;;5.20;;
60306;SDS011;46155;52.364;6.580;2023-04-25T07:44:21;7.87;;;5.33;;
60306;SDS011;46155;52.364;6.580;2023-04-25T07:46:46;15.47;;;5.27;;
60306;SDS011;46155;52.364;6.580;2023-04-25T07:49:11;9.83;;;5.43;;
60306;SDS011;46155;52.364;6.580;2023-04-25T07:51:37;5.47;;;4.93;;
60306;SDS011;46155;52.364;6.580;2023-04-25T07:54:02;6.23;;;5.47;;
60306;SDS011;46155;52.364;6.580;2023-04-25T07:56:27;7.87;;;4.40;;
60306;SDS011;46155;52.364;6.580;2023-04-25T07:58:53;11.83;;;5.30;;
60306;SDS011;46155;52.364;6.580;2023-04-25T08:01:18;7.37;;;5.40;;
60306;SDS011;46155;52.364;6.580;2023-04-25T08:03:45;7.80;;;5.63;;
60306;SDS011;46155;52.364;6.580;2023-04-25T08:06:10;5.50;;;5.00;;
60306;SDS011;46155;52.364;6.580;2023-04-25T08:08:36;9.20;;;5.13;;
60306;SDS011;46155;52.364;6.580;2023-04-25T08:11:01;12.73;;;5.07;;
60306;SDS011;46155;52.364;6.580;2023-04-25T08:13:26;8.67;;;5.03;;
60306;SDS011;46155;52.364;6.580;2023-04-25T08:15:52;6.13;;;4.63;;
60306;SDS011;46155;52.364;6.580;2023-04-25T08:18:17;10.27;;;5.37;;
60306;SDS011;46155;52.364;6.580;2023-04-25T08:20:43;7.50;;;4.90;;
60306;SDS011;46155;52.364;6.580;2023-04-25T08:23:08;14.33;;;5.03;;
60306;SDS011;46155;52.364;6.580;2023-04-25T08:25:35;8.73;;;5.70;;
60306;SDS011;46155;52.364;6.580;2023-04-25T08:28:01;10.63;;;5.40;;
60306;SDS011;46155;52.364;6.580;2023-04-25T08:30:28;5.87;;;5.37;;
60306;SDS011;46155;52.364;6.580;2023-04-25T08:32:53;8.77;;;5.20;;
60306;SDS011;46155;52.364;6.580;2023-04-25T08:35:19;8.57;;;4.93;;
60306;SDS011;46155;52.364;6.580;2023-04-25T08:37:45;8.40;;;4.37;;
60306;SDS011;46155;52.364;6.580;2023-04-25T08:40:11;10.80;;;5.07;;
60306;SDS011;46155;52.364;6.580;2023-04-25T08:42:40;12.63;;;4.90;;
60306;SDS011;46155;52.364;6.580;2023-04-25T08:45:07;10.83;;;5.83;;
60306;SDS011;46155;52.364;6.580;2023-04-25T08:47:33;10.80;;;4.63;;
60306;SDS011;46155;52.364;6.580;2023-04-25T08:50:00;5.23;;;4.47;;
60306;SDS011;46155;52.364;6.580;2023-04-25T08:52:27;5.97;;;4.10;;
60306;SDS011;46155;52.364;6.580;2023-04-25T08:54:55;16.57;;;4.40;;
60306;SDS011;46155;52.364;6.580;2023-04-25T08:57:22;7.80;;;4.53;;
60306;SDS011;46155;52.364;6.580;2023-04-25T08:59:48;9.07;;;4.43;;
60306;SDS011;46155;52.364;6.580;2023-04-25T09:02:14;5.70;;;4.90;;
60306;SDS011;46155;52.364;6.580;2023-04-25T09:04:42;7.00;;;4.33;;
60306;SDS011;46155;52.364;6.580;2023-04-25T09:07:09;13.90;;;4.80;;
60306;SDS011;46155;52.364;6.580;2023-04-25T09:09:34;5.87;;;4.47;;
60306;SDS011;46155;52.364;6.580;2023-04-25T09:12:00;7.53;;;4.83;;
60306;SDS011;46155;52.364;6.580;2023-04-25T09:14:26;16.60;;;5.77;;
60306;SDS011;46155;52.364;6.580;2023-04-25T09:19:21;10.43;;;4.87;;
60306;SDS011;46155;52.364;6.580;2023-04-25T09:21:54;5.57;;;4.87;;
60306;SDS011;46155;52.364;6.580;2023-04-25T09:24:31;10.30;;;5.00;;
60306;SDS011;46155;52.364;6.580;2023-04-25T09:26:56;8.27;;;4.50;;
60306;SDS011;46155;52.364;6.580;2023-04-25T09:29:28;5.67;;;4.40;;
60306;SDS011;46155;52.364;6.580;2023-04-25T09:32:10;11.70;;;5.80;;
60306;SDS011;46155;52.364;6.580;2023-04-25T09:34:39;5.40;;;4.83;;
60306;SDS011;46155;52.364;6.580;2023-04-25T09:37:05;7.30;;;4.83;;
60306;SDS011;46155;52.364;6.580;2023-04-25T09:39:32;4.87;;;4.47;;
60306;SDS011;46155;52.364;6.580;2023-04-25T09:41:58;5.60;;;4.83;;
60306;SDS011;46155;52.364;6.580;2023-04-25T09:44:24;7.70;;;4.73;;
60306;SDS011;46155;52.364;6.580;2023-04-25T09:46:49;8.00;;;6.03;;
60306;SDS011;46155;52.364;6.580;2023-04-25T09:49:19;12.13;;;5.00;;
60306;SDS011;46155;52.364;6.580;2023-04-25T09:51:55;6.53;;;4.27;;
60306;SDS011;46155;52.364;6.580;2023-04-25T09:54:22;15.17;;;4.60;;
60306;SDS011;46155;52.364;6.580;2023-04-25T09:56:48;14.00;;;5.67;;
60306;SDS011;46155;52.364;6.580;2023-04-25T09:59:16;5.57;;;4.37;;
60306;SDS011;46155;52.364;6.580;2023-04-25T10:01:45;7.50;;;4.40;;
60306;SDS011;46155;52.364;6.580;2023-04-25T10:04:10;6.33;;;3.83;;
60306;SDS011;46155;52.364;6.580;2023-04-25T10:06:37;7.90;;;4.23;;
60306;SDS011;46155;52.364;6.580;2023-04-25T10:09:03;6.93;;;4.63;;
60306;SDS011;46155;52.364;6.580;2023-04-25T10:11:32;4.53;;;4.10;;
60306;SDS011;46155;52.364;6.580;2023-04-25T10:13:58;9.90;;;4.27;;
60306;SDS011;46155;52.364;6.580;2023-04-25T10:16:25;4.30;;;4.00;;
60306;SDS011;46155;52.364;6.580;2023-04-25T10:18:51;5.20;;;4.17;;
60306;SDS011;46155;52.364;6.580;2023-04-25T10:21:17;5.67;;;3.70;;
60306;SDS011;46155;52.364;6.580;2023-04-25T10:23:42;5.90;;;4.43;;
60306;SDS011;46155;52.364;6.580;2023-04-25T10:26:10;8.20;;;4.00;;
60306;SDS011;46155;52.364;6.580;2023-04-25T10:31:26;6.87;;;4.30;;
60306;SDS011;46155;52.364;6.580;2023-04-25T10:33:51;11.43;;;5.00;;
60306;SDS011;46155;52.364;6.580;2023-04-25T10:36:19;10.00;;;4.03;;
60306;SDS011;46155;52.364;6.580;2023-04-25T10:38:47;7.17;;;3.67;;
60306;SDS011;46155;52.364;6.580;2023-04-25T10:41:13;7.80;;;4.50;;
60306;SDS011;46155;52.364;6.580;2023-04-25T10:43:40;9.90;;;3.80;;
60306;SDS011;46155;52.364;6.580;2023-04-25T10:48:43;4.67;;;4.10;;
60306;SDS011;46155;52.364;6.580;2023-04-25T10:51:12;4.27;;;3.50;;
60306;SDS011;46155;52.364;6.580;2023-04-25T10:53:45;7.00;;;3.80;;
60306;SDS011;46155;52.364;6.580;2023-04-25T10:56:33;4.27;;;4.00;;
60306;SDS011;46155;52.364;6.580;2023-04-25T10:59:14;4.97;;;4.43;;
60306;SDS011;46155;52.364;6.580;2023-04-25T11:01:42;10.57;;;4.73;;
60306;SDS011;46155;52.364;6.580;2023-04-25T11:09:23;6.77;;;4.23;;
60306;SDS011;46155;52.364;6.580;2023-04-25T11:11:56;4.33;;;3.97;;
60306;SDS011;46155;52.364;6.580;2023-04-25T11:14:23;6.87;;;4.63;;
60306;SDS011;46155;52.364;6.580;2023-04-25T11:16:55;4.83;;;4.53;;
60306;SDS011;46155;52.364;6.580;2023-04-25T11:19:22;6.97;;;4.33;;
60306;SDS011;46155;52.364;6.580;2023-04-25T11:21:48;9.87;;;6.13;;
60306;SDS011;46155;52.364;6.580;2023-04-25T11:24:15;4.70;;;4.40;;
60306;SDS011;46155;52.364;6.580;2023-04-25T11:26:41;4.73;;;4.27;;
60306;SDS011;46155;52.364;6.580;2023-04-25T11:29:07;6.90;;;4.53;;
60306;SDS011;46155;52.364;6.580;2023-04-25T11:31:33;6.33;;;4.27;;
60306;SDS011;46155;52.364;6.580;2023-04-25T11:33:58;11.97;;;4.53;;
60306;SDS011;46155;52.364;6.580;2023-04-25T11:36:24;8.43;;;5.00;;
60306;SDS011;46155;52.364;6.580;2023-04-25T11:38:50;8.90;;;4.70;;
60306;SDS011;46155;52.364;6.580;2023-04-25T11:41:16;6.60;;;5.37;;
60306;SDS011;46155;52.364;6.580;2023-04-25T11:43:43;8.00;;;5.03;;
60306;SDS011;46155;52.364;6.580;2023-04-25T11:46:09;5.70;;;5.07;;
60306;SDS011;46155;52.364;6.580;2023-04-25T11:48:38;6.07;;;5.03;;
60306;SDS011;46155;52.364;6.580;2023-04-25T11:51:05;4.90;;;4.40;;
60306;SDS011;46155;52.364;6.580;2023-04-25T11:53:30;4.90;;;4.50;;
60306;SDS011;46155;52.364;6.580;2023-04-25T11:55:55;5.23;;;4.73;;
60306;SDS011;46155;52.364;6.580;2023-04-25T11:58:21;5.57;;;4.60;;
60306;SDS011;46155;52.364;6.580;2023-04-25T12:00:46;7.53;;;4.80;;
60306;SDS011;46155;52.364;6.580;2023-04-25T12:03:12;6.07;;;4.90;;
60306;SDS011;46155;52.364;6.580;2023-04-25T12:05:37;5.93;;;4.33;;
60306;SDS011;46155;52.364;6.580;2023-04-25T12:08:11;5.80;;;3.80;;
60306;SDS011;46155;52.364;6.580;2023-04-25T12:10:40;10.10;;;4.70;;
60306;SDS011;46155;52.364;6.580;2023-04-25T12:15:45;12.27;;;4.70;;
60306;SDS011;46155;52.364;6.580;2023-04-25T12:18:10;6.53;;;4.87;;
60306;SDS011;46155;52.364;6.580;2023-04-25T12:20:36;7.63;;;4.30;;
60306;SDS011;46155;52.364;6.580;2023-04-25T12:23:01;6.83;;;4.37;;
60306;SDS011;46155;52.364;6.580;2023-04-25T12:25:39;9.10;;;4.53;;
60306;SDS011;46155;52.364;6.580;2023-04-25T12:31:11;4.33;;;3.50;;
60306;SDS011;46155;52.364;6.580;2023-04-25T12:33:34;3.87;;;3.57;;
60306;SDS011;46155;52.364;6.580;2023-04-25T12:36:01;7.10;;;4.10;;
60306;SDS011;46155;52.364;6.580;2023-04-25T12:38:38;10.30;;;4.13;;
60306;SDS011;46155;52.364;6.580;2023-04-25T12:41:05;5.17;;;4.40;;
60306;SDS011;46155;52.364;6.580;2023-04-25T12:43:31;4.73;;;4.43;;
60306;SDS011;46155;52.364;6.580;2023-04-25T12:45:57;8.80;;;4.30;;
60306;SDS011;46155;52.364;6.580;2023-04-25T12:48:22;5.63;;;4.00;;
60306;SDS011;46155;52.364;6.580;2023-04-25T12:50:49;4.77;;;4.03;;
60306;SDS011;46155;52.364;6.580;2023-04-25T12:53:16;5.50;;;3.97;;
60306;SDS011;46155;52.364;6.580;2023-04-25T12:55:42;4.40;;;4.10;;
60306;SDS011;46155;52.364;6.580;2023-04-25T12:58:07;5.37;;;3.63;;
60306;SDS011;46155;52.364;6.580;2023-04-25T13:00:32;4.20;;;4.00;;
60306;SDS011;46155;52.364;6.580;2023-04-25T13:02:58;5.57;;;4.20;;
60306;SDS011;46155;52.364;6.580;2023-04-25T13:05:24;4.87;;;4.00;;
60306;SDS011;46155;52.364;6.580;2023-04-25T13:07:50;5.43;;;4.20;;
60306;SDS011;46155;52.364;6.580;2023-04-25T13:10:16;9.83;;;5.03;;
60306;SDS011;46155;52.364;6.580;2023-04-25T13:12:42;4.40;;;4.10;;
60306;SDS011;46155;52.364;6.580;2023-04-25T13:15:08;6.87;;;3.87;;
60306;SDS011;46155;52.364;6.580;2023-04-25T13:17:36;4.93;;;4.30;;
60306;SDS011;46155;52.364;6.580;2023-04-25T13:20:01;4.13;;;3.83;;
60306;SDS011;46155;52.364;6.580;2023-04-25T13:22:28;4.50;;;4.10;;
60306;SDS011;46155;52.364;6.580;2023-04-25T13:24:54;4.37;;;3.97;;
60306;SDS011;46155;52.364;6.580;2023-04-25T13:27:19;4.57;;;4.17;;
60306;SDS011;46155;52.364;6.580;2023-04-25T13:29:44;5.57;;;3.67;;
60306;SDS011;46155;52.364;6.580;2023-04-25T13:32:10;7.97;;;4.33;;
60306;SDS011;46155;52.364;6.580;2023-04-25T13:34:35;8.93;;;4.10;;
60306;SDS011;46155;52.364;6.580;2023-04-25T13:37:00;11.60;;;3.73;;
60306;SDS011;46155;52.364;6.580;2023-04-25T13:39:26;5.33;;;3.97;;
60306;SDS011;46155;52.364;6.580;2023-04-25T13:41:51;5.10;;;4.70;;
60306;SDS011;46155;52.364;6.580;2023-04-25T13:44:16;4.47;;;4.17;;
60306;SDS011;46155;52.364;6.580;2023-04-25T13:46:42;12.53;;;4.33;;
60306;SDS011;46155;52.364;6.580;2023-04-25T13:49:07;4.03;;;3.73;;
60306;SDS011;46155;52.364;6.580;2023-04-25T13:51:32;8.73;;;3.83;;
60306;SDS011;46155;52.364;6.580;2023-04-25T13:53:57;9.30;;;4.70;;
60306;SDS011;46155;52.364;6.580;2023-04-25T13:56:23;4.37;;;4.03;;
60306;SDS011;46155;52.364;6.580;2023-04-25T13:58:49;4.13;;;3.80;;
60306;SDS011;46155;52.364;6.580;2023-04-25T14:01:15;5.57;;;3.97;;
60306;SDS011;46155;52.364;6.580;2023-04-25T14:03:40;14.17;;;4.47;;
60306;SDS011;46155;52.364;6.580;2023-04-25T14:06:06;3.97;;;3.60;;
60306;SDS011;46155;52.364;6.580;2023-04-25T14:08:31;4.53;;;4.13;;
60306;SDS011;46155;52.364;6.580;2023-04-25T14:10:57;3.87;;;3.57;;
60306;SDS011;46155;52.364;6.580;2023-04-25T14:13:22;6.47;;;4.23;;
60306;SDS011;46155;52.364;6.580;2023-04-25T14:15:48;10.67;;;4.53;;
60306;SDS011;46155;52.364;6.580;2023-04-25T14:18:15;4.27;;;3.97;;
60306;SDS011;46155;52.364;6.580;2023-04-25T14:20:40;9.83;;;4.00;;
60306;SDS011;46155;52.364;6.580;2023-04-25T14:23:06;8.60;;;4.07;;
60306;SDS011;46155;52.364;6.580;2023-04-25T14:25:31;4.60;;;3.73;;
60306;SDS011;46155;52.364;6.580;2023-04-25T14:27:56;9.23;;;3.80;;
60306;SDS011;46155;52.364;6.580;2023-04-25T14:30:22;6.50;;;4.63;;
60306;SDS011;46155;52.364;6.580;2023-04-25T14:32:50;4.77;;;3.90;;
60306;SDS011;46155;52.364;6.580;2023-04-25T14:35:16;4.60;;;4.30;;
60306;SDS011;46155;52.364;6.580;2023-04-25T14:37:41;6.27;;;4.50;;
60306;SDS011;46155;52.364;6.580;2023-04-25T14:40:06;8.37;;;5.37;;
60306;SDS011;46155;52.364;6.580;2023-04-25T14:42:35;9.40;;;4.57;;
60306;SDS011;46155;52.364;6.580;2023-04-25T14:45:02;6.47;;;4.27;;
60306;SDS011;46155;52.364;6.580;2023-04-25T14:47:28;5.67;;;4.60;;
60306;SDS011;46155;52.364;6.580;2023-04-25T14:49:53;6.67;;;4.90;;
60306;SDS011;46155;52.364;6.580;2023-04-25T14:52:19;5.53;;;5.03;;
60306;SDS011;46155;52.364;6.580;2023-04-25T14:54:46;8.83;;;5.13;;
60306;SDS011;46155;52.364;6.580;2023-04-25T14:57:12;6.93;;;5.17;;
60306;SDS011;46155;52.364;6.580;2023-04-25T14:59:37;5.07;;;4.67;;
60306;SDS011;46155;52.364;6.580;2023-04-25T15:02:03;4.73;;;4.37;;
60306;SDS011;46155;52.364;6.580;2023-04-25T15:04:29;9.67;;;4.87;;
60306;SDS011;46155;52.364;6.580;2023-04-25T15:06:54;6.07;;;4.47;;
60306;SDS011;46155;52.364;6.580;2023-04-25T15:09:20;4.80;;;4.47;;
60306;SDS011;46155;52.364;6.580;2023-04-25T15:11:45;6.27;;;4.33;;
60306;SDS011;46155;52.364;6.580;2023-04-25T15:14:10;9.47;;;4.57;;
60306;SDS011;46155;52.364;6.580;2023-04-25T15:16:36;8.73;;;4.23;;
60306;SDS011;46155;52.364;6.580;2023-04-25T15:19:01;11.20;;;3.97;;
60306;SDS011;46155;52.364;6.580;2023-04-25T15:21:29;13.63;;;4.40;;
60306;SDS011;46155;52.364;6.580;2023-04-25T15:23:55;4.50;;;3.80;;
60306;SDS011;46155;52.364;6.580;2023-04-25T15:26:21;6.70;;;3.70;;
60306;SDS011;46155;52.364;6.580;2023-04-25T15:28:46;7.13;;;4.37;;
60306;SDS011;46155;52.364;6.580;2023-04-25T15:31:12;4.00;;;3.60;;
60306;SDS011;46155;52.364;6.580;2023-04-25T15:33:37;6.40;;;4.07;;
60306;SDS011;46155;52.364;6.580;2023-04-25T15:36:02;4.60;;;3.93;;
60306;SDS011;46155;52.364;6.580;2023-04-25T15:38:28;4.40;;;3.47;;
60306;SDS011;46155;52.364;6.580;2023-04-25T15:40:53;8.20;;;4.50;;
60306;SDS011;46155;52.364;6.580;2023-04-25T15:43:19;5.40;;;3.93;;
60306;SDS011;46155;52.364;6.580;2023-04-25T15:45:44;5.93;;;3.77;;
60306;SDS011;46155;52.364;6.580;2023-04-25T15:48:09;8.23;;;4.30;;
60306;SDS011;46155;52.364;6.580;2023-04-25T15:50:35;10.17;;;3.87;;
60306;SDS011;46155;52.364;6.580;2023-04-25T15:53:01;6.53;;;4.27;;
60306;SDS011;46155;52.364;6.580;2023-04-25T15:55:26;4.57;;;3.73;;
60306;SDS011;46155;52.364;6.580;2023-04-25T15:57:52;5.40;;;4.10;;
60306;SDS011;46155;52.364;6.580;2023-04-25T16:00:18;5.63;;;3.87;;
60306;SDS011;46155;52.364;6.580;2023-04-25T16:02:45;6.70;;;3.90;;
60306;SDS011;46155;52.364;6.580;2023-04-25T16:05:12;9.60;;;4.57;;
60306;SDS011;46155;52.364;6.580;2023-04-25T16:07:39;5.07;;;4.57;;
60306;SDS011;46155;52.364;6.580;2023-04-25T16:10:05;7.83;;;4.50;;
60306;SDS011;46155;52.364;6.580;2023-04-25T16:12:32;5.90;;;4.13;;
60306;SDS011;46155;52.364;6.580;2023-04-25T16:14:57;5.03;;;4.43;;
60306;SDS011;46155;52.364;6.580;2023-04-25T16:17:23;8.23;;;4.83;;
60306;SDS011;46155;52.364;6.580;2023-04-25T16:19:49;5.83;;;4.43;;
60306;SDS011;46155;52.364;6.580;2023-04-25T16:22:14;4.67;;;4.27;;
60306;SDS011;46155;52.364;6.580;2023-04-25T16:24:41;12.63;;;4.90;;
60306;SDS011;46155;52.364;6.580;2023-04-25T16:27:07;6.43;;;4.30;;
60306;SDS011;46155;52.364;6.580;2023-04-25T16:29:32;4.93;;;4.50;;
60306;SDS011;46155;52.364;6.580;2023-04-25T16:31:57;5.97;;;3.87;;
60306;SDS011;46155;52.364;6.580;2023-04-25T16:34:23;6.10;;;4.40;;
60306;SDS011;46155;52.364;6.580;2023-04-25T16:36:51;7.80;;;4.13;;
60306;SDS011;46155;52.364;6.580;2023-04-25T16:39:16;5.90;;;4.50;;
60306;SDS011;46155;52.364;6.580;2023-04-25T16:41:42;8.07;;;4.97;;
60306;SDS011;46155;52.364;6.580;2023-04-25T16:44:07;7.37;;;4.90;;
60306;SDS011;46155;52.364;6.580;2023-04-25T16:46:33;8.63;;;4.60;;
60306;SDS011;46155;52.364;6.580;2023-04-25T16:48:58;9.50;;;5.40;;
60306;SDS011;46155;52.364;6.580;2023-04-25T16:51:23;7.07;;;4.97;;
60306;SDS011;46155;52.364;6.580;2023-04-25T16:53:49;6.73;;;4.30;;
60306;SDS011;46155;52.364;6.580;2023-04-25T16:56:14;7.77;;;4.80;;
60306;SDS011;46155;52.364;6.580;2023-04-25T16:58:39;9.57;;;3.63;;
60306;SDS011;46155;52.364;6.580;2023-04-25T17:01:05;5.90;;;4.13;;
60306;SDS011;46155;52.364;6.580;2023-04-25T17:03:30;10.93;;;4.70;;
60306;SDS011;46155;52.364;6.580;2023-04-25T17:05:56;8.30;;;4.40;;
60306;SDS011;46155;52.364;6.580;2023-04-25T17:08:22;4.83;;;4.40;;
60306;SDS011;46155;52.364;6.580;2023-04-25T17:10:48;7.47;;;4.40;;
60306;SDS011;46155;52.364;6.580;2023-04-25T17:13:14;7.90;;;4.33;;
60306;SDS011;46155;52.364;6.580;2023-04-25T17:15:40;6.40;;;4.20;;
60306;SDS011;46155;52.364;6.580;2023-04-25T17:18:05;5.50;;;4.30;;
60306;SDS011;46155;52.364;6.580;2023-04-25T17:20:30;9.10;;;4.27;;
60306;SDS011;46155;52.364;6.580;2023-04-25T17:22:56;4.80;;;4.10;;
60306;SDS011;46155;52.364;6.580;2023-04-25T17:25:21;8.57;;;4.53;;
60306;SDS011;46155;52.364;6.580;2023-04-25T17:27:47;4.20;;;3.80;;
60306;SDS011;46155;52.364;6.580;2023-04-25T17:30:12;4.50;;;3.87;;
60306;SDS011;46155;52.364;6.580;2023-04-25T17:32:38;8.37;;;4.53;;
60306;SDS011;46155;52.364;6.580;2023-04-25T17:35:04;6.17;;;4.07;;
60306;SDS011;46155;52.364;6.580;2023-04-25T17:37:30;5.10;;;3.77;;
60306;SDS011;46155;52.364;6.580;2023-04-25T17:39:55;5.77;;;4.17;;
60306;SDS011;46155;52.364;6.580;2023-04-25T17:42:21;4.70;;;4.30;;
60306;SDS011;46155;52.364;6.580;2023-04-25T17:44:46;9.17;;;4.80;;
60306;SDS011;46155;52.364;6.580;2023-04-25T17:47:12;8.10;;;4.03;;
60306;SDS011;46155;52.364;6.580;2023-04-25T17:49:38;4.93;;;4.40;;
60306;SDS011;46155;52.364;6.580;2023-04-25T17:52:03;7.33;;;4.43;;
60306;SDS011;46155;52.364;6.580;2023-04-25T17:54:29;7.70;;;4.43;;